Sligo Airport - TAF
(Terminal Area Forecast)

Issued at 12:51 UTC on Mon. 27-May-19

--- METARS(SA) ---

METAR EISG(SLIGO) 271230Z 29017KT CAVOK 13/10 Q//// =

--- TAFS() ---

TAF EISG(SLIGO) 271100Z 2712/2721 26015KT 9999 SCT020 BKN030 TEMPO

2712/2721 -SHRA SCT020CB PROB30 TEMPO 2712/2718 27018G28KT 4000 SHRAGS

BKN014 BECMG 2718/2721 27010KT =

--- SIGMETS(WS) ---

IE - No VALID SIGMETS/Warnings FOR THIS AREA

--- SIGMETS Volcanic(WV) ---

IE - No VALID SIGMETS/Warnings FOR THIS AREA

--- SIGMETS(WS) ---

UK - No VALID SIGMETS/Warnings FOR THIS AREA

Sligo Airport - METARs

Latest METARs for Sligo and Donegal Airports - updated every 30 mins